Tiempo atmosférico en la estación meteorológica de Ramales de la Victoria, Cantabria (80 m.)



Fecha
DESCASC
Temp. máxima en grados centígrados (hora)
DESCASC
Temp. mínima en grados centígrados (hora)
DESCASC
Temp. media en grados centígrados
DESCASC
Racha de viento máxima en m/sg (hora)
DESCASC
Velocidad máxima media en intervalos de 10 minutos(hora)
DESCASC
Precipitaciones diarias en mm
DESCASC
Precipitaciones de 00:00 a 06:00 en mm
DESCASC
Precipitaciones de 06:00 a 12:00 en mm
DESCASC
Precipitaciones de 12:00 a 18:00 en mm
DESCASC
Precipitaciones de 18:00 a 24:00 en mm
DESCASC
31-03-2020 10.1 (19:20) 1.1 (07:10) 5.6 5.83 (18:10) 2.78 (17:20) 0.6 0 0 0.6 0
30-03-2020 6.6 (00:00) 2.4 (08:10) 4.5 7.22 (10:40) 2.78 (10:50) 18.8 3.4 7.4 3.6 4.4
29-03-2020 16 (14:30) 1.1 (00:00) 8.6 7.5 (15:30) 3.33 (16:10) 3 0 0 0.6 2.4
28-03-2020 18.6 (14:00) 0.3 (00:00) 9.5 6.39 (15:20) 3.06 (14:40) 0 0 0 0 0
27-03-2020 16.1 (14:20) -0.4 (00:00) 7.9 7.22 (14:50) 3.33 (15:30) 0 0 0 0 0
26-03-2020 12.7 (15:50) 3.8 (00:00) 8.2 9.17 (12:50) 3.89 (12:10) 0 0 0 0 0
25-03-2020 18.1 (14:30) 3.2 (00:00) 10.7 8.89 (15:10) 4.72 (13:50) 0 0 0 0 0
24-03-2020 21.5 (14:50) 5.4 (00:00) 13.5 6.67 (15:50) 3.61 (11:40) 0 0 0 0 0
23-03-2020 18.7 (15:20) 9.3 (00:00) 14 5.83 (16:40) 3.06 (17:10) 0 0 0 0 0
22-03-2020 18.8 (14:50) 8.1 (00:10) 13.4 7.22 (17:50) 3.33 (17:50) 0 0 0 0 0
21-03-2020 22.6 (15:30) 8.2 (00:00) 15.4 7.5 (11:00) 4.17 (11:00) 0 0 0 0 0
20-03-2020 20.3 (14:50) 8.3 (00:00) 14.3 9.72 (12:30) 4.72 (12:20) 0 0 0 0 0
19-03-2020 23.8 (15:10) 9.7 (00:00) 16.7 6.67 (14:20) 3.61 (16:20) 0 0 0 0 0
18-03-2020 17.9 (15:50) 5.2 (00:00) 11.5 4.44 (16:40) 2.5 (16:30) 0.2 0.2 0 0 0
17-03-2020 13.7 (16:20) 7.2 (00:00) 10.4 3.89 (19:00) 1.94 (17:20) 1.6 1.4 0.2 0 0
16-03-2020 9.8 (14:10) 6.3 (00:00) 8.1 8.61 (10:10) 3.33 (10:10) 35.4 9 14.2 9 3.2
15-03-2020 16.6 (12:20) 1.7 (00:00) 9.2 6.94 (13:40) 3.89 (14:20) 5.2 0 0 0.8 4.4
14-03-2020 16.9 (14:50) 2 (00:00) 9.4 6.67 (16:20) 3.33 (16:50) 0 0 0 0 0
13-03-2020 13.9 (14:40) 3 (23:59) 8.4 4.44 (17:50) 2.22 (17:50) 1.6 1.2 0.4 0 0
12-03-2020 14.7 (13:50) 7.9 (00:00) 11.3 5 (18:00) 2.22 (18:00) 3.4 0 0 0.2 3.2
11-03-2020 20.5 (14:10) 4.8 (00:00) 12.7 6.11 (16:40) 3.89 (15:50) 0 0 0 0 0
10-03-2020 -- (--) -- (--) -- -- (--) -- (--) -- 0 0 -- 0
09-03-2020 14.3 (15:00) 6.1 (00:00) 10.2 10.28 (11:20) 4.44 (13:20) 3.8 3 0.8 0 0
08-03-2020 19.5 (15:30) 2.3 (00:00) 10.9 9.72 (17:20) 5 (16:30) 3.8 0 0 0 3.8
07-03-2020 14.7 (16:50) 3.7 (00:00) 9.2 7.22 (01:30) 2.78 (13:20) 4.2 1.6 2.6 0 0
06-03-2020 10.4 (12:00) 4.8 (00:00) 7.6 14.44 (15:30) 6.11 (15:40) 30.4 3.6 13.4 9.4 4
05-03-2020 19 (05:40) 5.8 (00:00) 12.4 21.67 (05:30) 7.5 (06:20) 14.6 0 8.8 2.4 3.4
04-03-2020 20.2 (15:00) 9.5 (00:00) 14.9 5.28 (16:10) 2.78 (16:20) 3.8 3.8 0 0 0
03-03-2020 20.1 (11:30) 3.9 (00:00) 12 19.17 (15:10) 7.5 (15:10) 5.6 1.2 1.6 1.6 1.2
02-03-2020 17.7 (01:50) 4.2 (00:00) 11 21.11 (00:10) 8.33 (05:50) 35.2 14.2 10.4 5.8 4.8

Gráficas

Temp. máximas Temp. mínimas Temp. medias Precipitaciones Rachas de viento máximas Velocidades máximas media en intervalos de 10 minutos

Datos horarios

Fecha y hora oficial Temperatura (ºC) Velocidad del viento (km/h) Dirección del viento Racha (km/h) Dirección de racha Precipitación (mm) Presión (hPa) Tendencia (hPa) Humedad (%)
2020-03-31 23:00:00 8.3 4 Este 17 Nordeste 0 -- -- 92
2020-03-31 22:00:00 8.3 3 Este 13 Nordeste 0 -- -- 91
2020-03-31 21:00:00 8.6 2 Este 13 Este 0 -- -- 90
2020-03-31 20:00:00 9.8 6 Este 12 Nordeste 0 -- -- 85
2020-03-31 19:00:00 9.9 3 Sudeste 21 Nordeste 0 -- -- 84
2020-03-31 18:00:00 9.7 8 Nordeste 19 Este 0 -- -- 82
2020-03-31 17:00:00 9.2 7 Este 14 Nordeste 0.2 -- -- 85
2020-03-31 16:00:00 9.3 0 Calma 12 Nordeste 0.2 -- -- 86
2020-03-31 15:00:00 8.6 6 Nordeste 11 Nordeste 0.2 -- -- 83
2020-03-31 14:00:00 8.3 4 Este 12 Este 0 -- -- 79
2020-03-31 13:00:00 7.6 5 Este 12 Este 0 -- -- 77
2020-03-31 12:00:00 6.1 4 Este 9 Este 0 -- -- 83
2020-03-31 11:00:00 4.8 4 Este 8 Nordeste 0 -- -- 95
2020-03-31 10:00:00 2.8 0 Calma 4 Oeste 0 -- -- 99
2020-03-31 09:00:00 2 2 Oeste 8 Este 0 -- -- 99
2020-03-31 08:00:00 1.4 2 Oeste 7 Oeste 0 -- -- 99
2020-03-31 07:00:00 1.2 0 Calma 4 Oeste 0 -- -- 99
2020-03-31 06:00:00 1.2 0 Calma 4 Oeste 0 -- -- 99
2020-03-31 05:00:00 1.4 2 Sudoeste 5 Oeste 0 -- -- 98
2020-03-31 04:00:00 1.5 0 Calma 4 Oeste 0 -- -- 98
2020-03-31 03:00:00 1.3 2 Sudoeste 4 Oeste 0 -- -- 97
2020-03-31 02:00:00 2.7 3 Oeste 5 Oeste 0 -- -- 97
2020-03-31 01:00:00 3.2 0 Calma 5 Sudeste 0 -- -- 97
2020-03-31 00:00:00 3.2 0 Calma 5 Sur 0 -- -- 97
2020-03-30 23:00:00 2.9 3 Este 5 Este 0.2 -- -- 97
2020-03-30 22:00:00 3 0 Calma 5 Oeste 0.4 -- -- 96
2020-03-30 21:00:00 3.1 2 Este 7 Noroeste 0.4 -- -- 95
2020-03-30 20:00:00 3.7 4 Oeste 13 Nordeste 3.4 -- -- 92
2020-03-30 19:00:00 5.2 3 Sudeste 13 Nordeste 0 -- -- 88
2020-03-30 18:00:00 5.5 4 Norte 12 Noroeste 0.4 -- -- 86
2020-03-30 17:00:00 5.8 0 Calma 6 Sudeste 0 -- -- 86
2020-03-30 16:00:00 5.1 5 Nordeste 19 Nordeste 0.4 -- -- 88
2020-03-30 15:00:00 5.1 4 Norte 11 Este 0.2 -- -- 87
2020-03-30 14:00:00 4.2 4 Oeste 17 Norte 1.6 -- -- 94
2020-03-30 13:00:00 5 9 Noroeste 21 Oeste 1 -- -- 89
2020-03-30 12:00:00 4.6 5 Noroeste 17 Noroeste 0 -- -- 87
2020-03-30 11:00:00 2.4 6 Oeste 26 Noroeste 2.6 -- -- 92
2020-03-30 10:00:00 5.1 3 Norte 11 Oeste 0 -- -- 95
2020-03-30 09:00:00 2.7 4 Oeste 9 Sur 0.2 -- -- 97
2020-03-30 08:00:00 2.6 3 Sudoeste 14 Oeste 3.4 -- -- 93
2020-03-30 07:00:00 3.8 2 Oeste 9 Norte 1.2 -- -- 95
2020-03-30 06:00:00 4.5 0 Calma 5 Sudoeste 0.2 -- -- 96
2020-03-30 05:00:00 4.9 2 Norte 4 Nordeste 0 -- -- 96
2020-03-30 04:00:00 5 0 Calma 10 Sudoeste 0.2 -- -- 94
2020-03-30 03:00:00 5.5 2 Oeste 15 Oeste 0.8 -- -- 92
2020-03-30 02:00:00 5.9 6 Noroeste 15 Oeste 1.2 -- -- 91
2020-03-30 01:00:00 6.3 8 Oeste 18 Oeste 1 -- -- 95
2020-03-30 00:00:00 6.6 3 Noroeste 7 Noroeste 0.8 -- -- 96
2020-03-29 23:00:00 6.8 0 Calma 9 Oeste 0.6 -- -- 94
2020-03-29 22:00:00 7.2 5 Oeste 12 Oeste 0.4 -- -- 92
2020-03-29 21:00:00 7.9 6 Oeste 19 Noroeste 0 -- -- 90
2020-03-29 20:00:00 8.5 5 Oeste 14 Sudoeste 0 -- -- 91
2020-03-29 19:00:00 9.1 3 Oeste 12 Norte 0.6 -- -- 91
2020-03-29 18:00:00 9.6 4 Norte 15 Nordeste 0.6 -- -- 89
2020-03-29 17:00:00 10.3 6 Nordeste 24 Nordeste 0 -- -- 88
2020-03-29 16:00:00 12.8 8 Norte 27 Nordeste 0 -- -- 70
2020-03-29 15:00:00 15.4 4 Norte 17 Este 0 -- -- 54
2020-03-29 14:00:00 14.9 5 Nordeste 22 Nordeste 0 -- -- 56
2020-03-29 13:00:00 13.8 4 Norte 13 Nordeste 0 -- -- 62
2020-03-29 12:00:00 13.3 2 Nordeste 6 Nordeste 0 -- -- 64
2020-03-29 11:00:00 8.3 0 Calma 4 Sudeste 0 -- -- 87
2020-03-29 10:00:00 4.3 0 Calma 4 Oeste 0 -- -- 99
2020-03-29 09:00:00 1.5 2 Oeste 5 Oeste 0 -- -- 98
2020-03-29 08:00:00 1.1 0 Calma 4 Sudoeste 0 -- -- 98
2020-03-29 07:00:00 1.3 0 Calma 4 Sudoeste 0 -- -- 97
2020-03-29 06:00:00 1.3 0 Calma 3 Oeste 0 -- -- 97
2020-03-29 05:00:00 1.9 0 Calma 4 Oeste 0 -- -- 97
2020-03-29 03:00:00 2.8 0 Calma 4 Sudoeste 0 -- -- 96
2020-03-29 01:00:00 3.4 0 Calma 3 Sudoeste 0 -- -- 95
2020-03-29 00:00:00 4.2 0 Calma 4 Oeste 0 -- -- 94
2020-03-28 23:00:00 5 0 Calma 4 Sudoeste 0 -- -- 91
2020-03-28 22:00:00 6.2 2 Sudoeste 5 Sur 0 -- -- 89
2020-03-28 21:00:00 7.8 0 Calma 5 Sur 0 -- -- 83
2020-03-28 20:00:00 10.2 0 Calma 5 Este 0 -- -- 77
2020-03-28 19:00:00 13.7 0 Calma 16 Nordeste 0 -- -- 64
2020-03-28 18:00:00 15 8 Nordeste 18 Nordeste 0 -- -- 52
2020-03-28 17:00:00 16.6 9 Nordeste 23 Nordeste 0 -- -- 48
2020-03-28 16:00:00 17.4 11 Nordeste 23 Este 0 -- -- 49
2020-03-28 15:00:00 18.2 11 Nordeste 22 Nordeste 0 -- -- 45
2020-03-28 14:00:00 18.6 9 Este 19 Nordeste 0 -- -- 48
2020-03-28 13:00:00 17.8 8 Este 17 Este 0 -- -- 49
2020-03-28 12:00:00 16.3 6 Este 13 Este 0 -- -- 51
2020-03-28 11:00:00 11.9 0 Calma 5 Este 0 -- -- 63
2020-03-28 10:00:00 7 0 Calma 3 Sudeste 0 -- -- 92
2020-03-28 09:00:00 3.2 0 Calma 2 Oeste 0 -- -- 99
2020-03-28 08:00:00 0.7 0 Calma 3 Sudoeste 0 -- -- 98
2020-03-28 07:00:00 0.4 0 Calma 3 Sur 0 -- -- 97
2020-03-28 06:00:00 0.8 0 Calma 4 Oeste 0 -- -- 97
2020-03-28 05:00:00 1.1 0 Calma 4 Sudoeste 0 -- -- 97
2020-03-28 04:00:00 1.4 3 Oeste 4 Sudoeste 0 -- -- 97
2020-03-28 03:00:00 1.7 0 Calma 4 Sur 0 -- -- 96
2020-03-28 02:00:00 2.1 0 Calma 4 Sur 0 -- -- 96
2020-03-28 01:00:00 2.5 0 Calma 3 Oeste 0 -- -- 95
2020-03-28 00:00:00 3 0 Calma 4 Oeste 0 -- -- 94
2020-03-27 23:00:00 3.6 3 Oeste 5 Oeste 0 -- -- 92
2020-03-27 22:00:00 4.7 0 Calma 3 Oeste 0 -- -- 89
2020-03-27 21:00:00 6.1 0 Calma 3 Sudoeste 0 -- -- 84
2020-03-27 20:00:00 8 0 Calma 10 Nordeste 0 -- -- 76
2020-03-27 19:00:00 11.5 4 Norte 21 Nordeste 0 -- -- 61
2020-03-27 18:00:00 13.2 8 Nordeste 22 Nordeste 0 -- -- 54
2020-03-27 17:00:00 14.2 10 Nordeste 25 Nordeste 0 -- -- 56
2020-03-27 16:00:00 15.1 11 Nordeste 26 Norte 0 -- -- 54
2020-03-27 15:00:00 15.7 10 Nordeste 26 Nordeste 0 -- -- 51
2020-03-27 14:00:00 15.5 5 Nordeste 18 Nordeste 0 -- -- 47
2020-03-27 13:00:00 15.1 7 Norte 18 Norte 0 -- -- 46
2020-03-27 12:00:00 14.1 9 Este 19 Este 0 -- -- 45
2020-03-27 11:00:00 11.7 0 Calma 5 Sudeste 0 -- -- 59
2020-03-27 10:00:00 7.4 2 Este 4 Norte 0 -- -- 74
2020-03-27 09:00:00 3 2 Oeste 4 Oeste 0 -- -- 96
2020-03-27 08:00:00 0.1 3 Oeste 5 Oeste 0 -- -- 97
2020-03-27 07:00:00 -0.2 3 Oeste 6 Oeste 0 -- -- 96
2020-03-27 06:00:00 -0.1 3 Oeste 6 Oeste 0 -- -- 95
2020-03-27 05:00:00 0.5 0 Calma 6 Oeste 0 -- -- 94
2020-03-27 04:00:00 1 3 Sudoeste 5 Oeste 0 -- -- 94
2020-03-27 03:00:00 1.7 0 Calma 5 Sudeste 0 -- -- 92
2020-03-27 02:00:00 2.9 2 Sudoeste 5 Sudoeste 0 -- -- 88
2020-03-27 01:00:00 4.3 0 Calma 5 Sudoeste 0 -- -- 85
2020-03-27 00:00:00 4.7 0 Calma 4 Oeste 0 -- -- 86
2020-03-26 23:00:00 3.9 0 Calma 4 Sur 0 -- -- 85
2020-03-26 22:00:00 4.4 0 Calma 6 Oeste 0 -- -- 80
2020-03-26 21:00:00 6.5 2 Oeste 5 Oeste 0 -- -- 73
2020-03-26 20:00:00 8.3 2 Noroeste 10 Oeste 0 -- -- 64
2020-03-26 19:00:00 9.3 3 Norte 17 Nordeste 0 -- -- 59
2020-03-26 18:00:00 10.2 5 Nordeste 21 Nordeste 0 -- -- 59
2020-03-26 17:00:00 11.2 4 Norte 20 Nordeste 0 -- -- 59
2020-03-26 16:00:00 12.3 9 Noroeste 31 Oeste 0 -- -- 54
2020-03-26 15:00:00 12.1 9 Noroeste 22 Nordeste 0 -- -- 58
2020-03-26 14:00:00 12 4 Norte 17 Norte 0 -- -- 59
2020-03-26 13:00:00 11.2 10 Noroeste 33 Oeste 0 -- -- 60
2020-03-26 12:00:00 11.5 12 Noroeste 28 Noroeste 0 -- -- 61
2020-03-26 11:00:00 11.1 9 Noroeste 21 Oeste 0 -- -- 67
2020-03-26 10:00:00 11.2 6 Noroeste 24 Noroeste 0 -- -- 68
2020-03-26 09:00:00 10.1 5 Noroeste 20 Noroeste 0 -- -- 75
2020-03-26 08:00:00 9.6 9 Noroeste 23 Noroeste 0 -- -- 72
2020-03-26 07:00:00 9.3 6 Noroeste 23 Oeste 0 -- -- 70
2020-03-26 06:00:00 9 8 Noroeste 22 Oeste 0 -- -- 70
2020-03-26 05:00:00 9.1 11 Oeste 23 Oeste 0 -- -- 68
2020-03-26 04:00:00 7 3 Este 7 Noroeste 0 -- -- 85
2020-03-26 03:00:00 6.7 2 Noroeste 6 Oeste 0 -- -- 88
2020-03-26 02:00:00 6.4 0 Calma 4 Oeste 0 -- -- 91
2020-03-26 01:00:00 5.7 3 Oeste 5 Oeste 0 -- -- 93
2020-03-26 00:00:00 4.9 0 Calma 5 Oeste 0 -- -- 90
2020-03-25 23:00:00 5.9 0 Calma 7 Sudeste 0 -- -- 88
2020-03-25 22:00:00 7.7 0 Calma 13 Oeste 0 -- -- 81
2020-03-25 21:00:00 9.4 2 Sudoeste 17 Nordeste 0 -- -- 75
2020-03-25 20:00:00 10 4 Este 15 Norte 0 -- -- 71
2020-03-25 19:00:00 12.1 8 Noroeste 27 Oeste 0 -- -- 62
2020-03-25 18:00:00 14.2 11 Noroeste 26 Oeste 0 -- -- 64
2020-03-25 17:00:00 15.4 8 Norte 21 Nordeste 0 -- -- 60
2020-03-25 16:00:00 17.1 7 Norte 32 Oeste 0 -- -- 58
2020-03-25 15:00:00 17.9 12 Noroeste 29 Oeste 0 -- -- 54
2020-03-25 14:00:00 17.6 14 Noroeste 27 Oeste 0 -- -- 56
2020-03-25 13:00:00 17.7 15 Oeste 26 Noroeste 0 -- -- 61
2020-03-25 12:00:00 17.7 10 Noroeste 20 Oeste 0 -- -- 52
2020-03-25 11:00:00 15.4 5 Nordeste 9 Nordeste 0 -- -- 66
2020-03-25 10:00:00 10.6 0 Calma 4 Nordeste 0 -- -- 82
2020-03-25 09:00:00 6.7 0 Calma 4 Noroeste 0 -- -- 99
2020-03-25 08:00:00 3.6 0 Calma 2 Oeste 0 -- -- 99
2020-03-25 07:00:00 3.3 0 Calma 3 Oeste 0 -- -- 98
2020-03-25 06:00:00 3.6 3 Oeste 5 Sudoeste 0 -- -- 97
2020-03-25 05:00:00 3.8 0 Calma 3 Oeste 0 -- -- 97
2020-03-25 04:00:00 4.5 0 Calma 4 Sudoeste 0 -- -- 97
2020-03-25 03:00:00 4.9 3 Oeste 4 Sudoeste 0 -- -- 97
2020-03-25 02:00:00 5.3 2 Oeste 5 Oeste 0 -- -- 96
2020-03-25 01:00:00 5.9 0 Calma 6 Oeste 0 -- -- 96
2020-03-25 00:00:00 6.3 3 Oeste 5 Oeste 0 -- -- 95
2020-03-24 23:00:00 6.9 0 Calma 3 Oeste 0 -- -- 92
2020-03-24 22:00:00 8 0 Calma 3 Oeste 0 -- -- 90
2020-03-24 21:00:00 9.4 0 Calma 3 Sudoeste 0 -- -- 86
2020-03-24 20:00:00 11.5 0 Calma 4 Sur 0 -- -- 77
2020-03-24 19:00:00 14.7 2 Sur 6 Norte 0 -- -- 70
2020-03-24 18:00:00 19 4 Nordeste 17 Nordeste 0 -- -- 52
2020-03-24 17:00:00 18.9 8 Nordeste 21 Nordeste 0 -- -- 55
2020-03-24 16:00:00 19.4 9 Nordeste 24 Nordeste 0 -- -- 55
2020-03-24 15:00:00 21.1 10 Este 19 Este 0 -- -- 52
2020-03-24 14:00:00 20 8 Este 21 Nordeste 0 -- -- 49
2020-03-24 13:00:00 20.6 11 Este 19 Este 0 -- -- 51
2020-03-24 12:00:00 19.8 10 Este 22 Este 0 -- -- 55
2020-03-24 11:00:00 17.2 2 Oeste 5 Noroeste 0 -- -- 72
2020-03-24 10:00:00 11.8 0 Calma 4 Sudoeste 0 -- -- 88
2020-03-24 09:00:00 8 0 Calma 4 Oeste 0 -- -- 100
2020-03-24 08:00:00 6 0 Calma 5 Sudoeste 0 -- -- 99
2020-03-24 07:00:00 6.1 0 Calma 2 Oeste 0 -- -- 98
2020-03-24 06:00:00 5.8 0 Calma 4 Oeste 0 -- -- 98
2020-03-24 05:00:00 5.5 0 Calma 4 Noroeste 0 -- -- 97
2020-03-24 04:00:00 6.3 0 Calma 4 Sudoeste 0 -- -- 97
2020-03-24 03:00:00 6.8 0 Calma 4 Oeste 0 -- -- 96
2020-03-24 02:00:00 7.6 0 Calma 7 Oeste 0 -- -- 95
2020-03-24 01:00:00 8.7 2 Sudeste 10 Sur 0 -- -- 96
2020-03-24 00:00:00 9.3 0 Calma 5 Este 0 -- -- 93
2020-03-23 23:00:00 10.4 0 Calma 5 Sur 0 -- -- 91
2020-03-23 22:00:00 11.5 0 Calma 3 Oeste 0 -- -- 89
2020-03-23 21:00:00 12.1 0 Calma 8 Este 0 -- -- 86
2020-03-23 20:00:00 12.8 0 Calma 8 Este 0 -- -- 84
2020-03-23 19:00:00 13.6 3 Sudeste 15 Nordeste 0 -- -- 79
2020-03-23 18:00:00 14.6 4 Nordeste 19 Este 0 -- -- 72
2020-03-23 17:00:00 15.7 10 Nordeste 21 Nordeste 0 -- -- 69
2020-03-23 16:00:00 17.5 5 Nordeste 18 Nordeste 0 -- -- 64
2020-03-23 15:00:00 18.3 8 Nordeste 18 Nordeste 0 -- -- 60
2020-03-23 14:00:00 18.1 7 Este 17 Nordeste 0 -- -- 63
2020-03-23 13:00:00 16.8 6 Este 15 Este 0 -- -- 66
2020-03-23 12:00:00 15.3 5 Este 12 Nordeste 0 -- -- 74
2020-03-23 11:00:00 13.8 4 Este 8 Este 0 -- -- 80
2020-03-23 10:00:00 12.9 2 Oeste 6 Noroeste 0 -- -- 87
2020-03-23 09:00:00 11.3 3 Oeste 4 Oeste 0 -- -- 94
2020-03-23 08:00:00 10.7 3 Sudeste 8 Oeste 0 -- -- 94
2020-03-23 07:00:00 10.8 0 Calma 3 Oeste 0 -- -- 94
2020-03-23 06:00:00 10.9 0 Calma 3 Sudeste 0 -- -- 94
2020-03-23 05:00:00 11.1 0 Calma 6 Este 0 -- -- 93
2020-03-23 04:00:00 11.3 3 Nordeste 6 Nordeste 0 -- -- 92
2020-03-23 03:00:00 11 2 Este 5 Este 0 -- -- 94
2020-03-23 02:00:00 10.8 0 Calma 4 Oeste 0 -- -- 94
2020-03-23 01:00:00 11 0 Calma 2 Oeste 0 -- -- 93
2020-03-23 00:00:00 11 0 Calma 5 Oeste 0 -- -- 91
2020-03-22 23:00:00 10.7 0 Calma 5 Oeste 0 -- -- 92
2020-03-22 22:00:00 10.8 0 Calma 7 Oeste 0 -- -- 89
2020-03-22 21:00:00 12.2 2 Oeste 10 Oeste 0 -- -- 85
2020-03-22 20:00:00 13.3 2 Noroeste 22 Oeste 0 -- -- 81
2020-03-22 19:00:00 14.5 9 Noroeste 23 Noroeste 0 -- -- 76
2020-03-22 18:00:00 16.7 10 Noroeste 26 Oeste 0 -- -- 70
2020-03-22 17:00:00 18.5 6 Noroeste 19 Nordeste 0 -- -- 64
2020-03-22 16:00:00 18.3 7 Nordeste 18 Nordeste 0 -- -- 66
2020-03-22 15:00:00 18.3 6 Nordeste 13 Nordeste 0 -- -- 61
2020-03-22 14:00:00 17.8 4 Nordeste 11 Norte 0 -- -- 64
2020-03-22 13:00:00 16.4 4 Este 15 Sudeste 0 -- -- 68
2020-03-22 12:00:00 15 7 Sudeste 17 Sur 0 -- -- 74
2020-03-22 11:00:00 13.4 5 Sudeste 17 Sur 0 -- -- 79
2020-03-22 10:00:00 11.8 4 Sudeste 12 Sudeste 0 -- -- 85
2020-03-22 09:00:00 10.7 3 Sur 8 Sur 0 -- -- 90
2020-03-22 08:00:00 10.4 0 Calma 5 Sudeste 0 -- -- 91
2020-03-22 07:00:00 10.4 2 Sudeste 10 Sudeste 0 -- -- 90
2020-03-22 06:00:00 10.4 0 Calma 3 Este 0 -- -- 93
2020-03-22 05:00:00 10.3 0 Calma 3 Sudoeste 0 -- -- 93
2020-03-22 04:00:00 10.1 0 Calma 4 Oeste 0 -- -- 93
2020-03-22 03:00:00 9.8 0 Calma 2 Sudeste 0 -- -- 93
2020-03-22 02:00:00 9.4 0 Calma 4 Oeste 0 -- -- 96
2020-03-22 01:00:00 8.7 0 Calma 2 Oeste 0 -- -- 97
2020-03-22 00:00:00 8.2 0 Calma 2 Oeste 0 -- -- 93
2020-03-21 23:00:00 9.1 0 Calma 3 Oeste 0 -- -- 91
2020-03-21 22:00:00 10.4 0 Calma 4 Oeste 0 -- -- 89
2020-03-21 21:00:00 12.4 0 Calma 15 Este 0 -- -- 81
2020-03-21 20:00:00 14.4 3 Este 11 Norte 0 -- -- 73
2020-03-21 19:00:00 17.3 4 Norte 13 Nordeste 0 -- -- 63
2020-03-21 18:00:00 20.5 4 Sur 14 Sur 0 -- -- 51
2020-03-21 17:00:00 22 5 Sudeste 21 Sudeste 0 -- -- 46
2020-03-21 16:00:00 22.5 5 Este 15 Este 0 -- -- 47
2020-03-21 15:00:00 22.2 8 Este 21 Este 0 -- -- 48
2020-03-21 14:00:00 21.1 11 Nordeste 20 Este 0 -- -- 51
2020-03-21 13:00:00 20.7 7 Este 22 Sudeste 0 -- -- 49
2020-03-21 12:00:00 19.1 11 Este 24 Este 0 -- -- 51
2020-03-21 11:00:00 18.1 15 Este 27 Este 0 -- -- 54
2020-03-21 10:00:00 17 10 Este 20 Sudeste 0 -- -- 57
2020-03-21 09:00:00 13 5 Oeste 19 Este 0 -- -- 76
2020-03-21 08:00:00 12.3 4 Sur 27 Sudeste 0 -- -- 75
2020-03-21 07:00:00 13 14 Este 23 Sudeste 0 -- -- 69
2020-03-21 06:00:00 12.3 9 Este 16 Sudeste 0 -- -- 73
2020-03-21 05:00:00 10.6 3 Sur 7 Oeste 0 -- -- 84
2020-03-21 04:00:00 12.3 3 Sudoeste 12 Este 0 -- -- 76
2020-03-21 03:00:00 14.1 5 Sudeste 19 Sudeste 0 -- -- 68
2020-03-21 02:00:00 14.6 9 Sudeste 23 Este 0 -- -- 66
2020-03-21 01:00:00 14.5 9 Sudeste 20 Este 0 -- -- 67
2020-03-21 00:00:00 14.3 9 Sudeste 17 Sudeste 0 -- -- 67
2020-03-20 23:00:00 15.2 8 Este 24 Este 0 -- -- 65
2020-03-20 22:00:00 15.1 6 Este 19 Este 0 -- -- 66
2020-03-20 21:00:00 14.4 5 Nordeste 12 Nordeste 0 -- -- 68
2020-03-20 20:00:00 15.5 2 Este 10 Nordeste 0 -- -- 65
2020-03-20 19:00:00 17.1 3 Sudoeste 13 Sur 0 -- -- 62
2020-03-20 18:00:00 18.2 10 Este 24 Este 0 -- -- 55
2020-03-20 17:00:00 19.1 3 Este 22 Sudeste 0 -- -- 51
2020-03-20 16:00:00 18.9 7 Este 23 Sudeste 0 -- -- 51
2020-03-20 15:00:00 20.3 9 Este 22 Sudeste 0 -- -- 45
2020-03-20 14:00:00 18.7 8 Sudeste 28 Este 0 -- -- 45
2020-03-20 13:00:00 19.3 8 Sudoeste 35 Este 0 -- -- 42
2020-03-20 12:00:00 18.6 16 Este 28 Este 0 -- -- 41
2020-03-20 11:00:00 16.8 10 Este 26 Este 0 -- -- 46
2020-03-20 10:00:00 16.2 9 Este 19 Este 0 -- -- 48
2020-03-20 09:00:00 12.5 4 Sur 13 Este 0 -- -- 74
2020-03-20 08:00:00 10.9 4 Sudeste 18 Este 0 -- -- 78
2020-03-20 07:00:00 12.2 8 Sudeste 18 Sudeste 0 -- -- 68
2020-03-20 06:00:00 12.4 6 Sudeste 21 Sudeste 0 -- -- 69
2020-03-20 05:00:00 9.8 6 Este 22 Nordeste 0 -- -- 89
2020-03-20 04:00:00 8.6 4 Oeste 8 Oeste 0 -- -- 98
2020-03-20 03:00:00 9.4 4 Noroeste 9 Nordeste 0 -- -- 97
2020-03-20 02:00:00 10.1 0 Calma 5 Noroeste 0 -- -- 97
2020-03-20 01:00:00 10.7 2 Este 5 Este 0 -- -- 97
2020-03-20 00:00:00 11.1 0 Calma 7 Este 0 -- -- 97
2020-03-19 23:00:00 11.4 2 Este 9 Este 0 -- -- 96
2020-03-19 22:00:00 11.9 0 Calma 9 Nordeste 0 -- -- 96
2020-03-19 21:00:00 12.1 3 Este 13 Este 0 -- -- 94
2020-03-19 20:00:00 12.7 7 Este 16 Este 0 -- -- 92
2020-03-19 19:00:00 14.7 6 Nordeste 15 Este 0 -- -- 85
2020-03-19 18:00:00 16.5 7 Este 23 Este 0 -- -- 80
2020-03-19 17:00:00 18.4 11 Este 24 Nordeste 0 -- -- 74
2020-03-19 16:00:00 21.6 6 Este 22 Nordeste 0 -- -- 66
2020-03-19 15:00:00 23.6 9 Este 24 Sudeste 0 -- -- 48
2020-03-19 14:00:00 22.3 5 Nordeste 14 Nordeste 0 -- -- 53
2020-03-19 13:00:00 18.4 2 Sur 9 Este 0 -- -- 72
2020-03-19 12:00:00 15.7 2 Este 5 Nordeste 0 -- -- 83
2020-03-19 11:00:00 12.3 2 Sudoeste 5 Oeste 0 -- -- 94
2020-03-19 10:00:00 10.3 0 Calma 5 Noroeste 0 -- -- 98
2020-03-19 09:00:00 9.8 3 Noroeste 5 Noroeste 0 -- -- 99
2020-03-19 08:00:00 9.7 0 Calma 4 Sudeste 0 -- -- 99
2020-03-19 07:00:00 9.9 0 Calma 5 Este 0 -- -- 99
2020-03-19 06:00:00 10.1 0 Calma 3 Este 0 -- -- 99
2020-03-19 05:00:00 10.4 3 Oeste 5 Oeste 0 -- -- 99
2020-03-19 04:00:00 10.6 0 Calma 2 Este 0 -- -- 99
2020-03-19 03:00:00 10.5 0 Calma 2 Sudeste 0 -- -- 98
2020-03-19 02:00:00 10.6 0 Calma 2 Oeste 0 -- -- 98
2020-03-19 01:00:00 10.5 0 Calma 2 Oeste 0 -- -- 98
2020-03-19 00:00:00 10.4 0 Calma 3 Oeste 0 -- -- 97
2020-03-18 23:00:00 10.2 0 Calma 2 Oeste 0 -- -- 97
2020-03-18 22:00:00 10.2 0 Calma 4 Sur 0 -- -- 94
2020-03-18 21:00:00 11.3 0 Calma 6 Nordeste 0 -- -- 93
2020-03-18 20:00:00 12.7 3 Nordeste 9 Nordeste 0 -- -- 89
2020-03-18 19:00:00 14.3 6 Nordeste 13 Nordeste 0 -- -- 85
2020-03-18 18:00:00 16.6 4 Nordeste 14 Este 0 -- -- 79
2020-03-18 17:00:00 17.5 6 Este 16 Este 0 -- -- 77
2020-03-18 16:00:00 17.8 8 Nordeste 15 Nordeste 0 -- -- 76
2020-03-18 15:00:00 17.1 6 Nordeste 15 Este 0 -- -- 78
2020-03-18 14:00:00 16.7 6 Nordeste 11 Nordeste 0 -- -- 77
2020-03-18 13:00:00 15.7 3 Nordeste 7 Nordeste 0 -- -- 77
2020-03-18 12:00:00 13.8 3 Este 6 Este 0 -- -- 85
2020-03-18 11:00:00 10.6 0 Calma 3 Este 0 -- -- 100
2020-03-18 10:00:00 8.4 0 Calma 3 Oeste 0 -- -- 100
2020-03-18 09:00:00 6.5 0 Calma 4 Oeste 0 -- -- 100
2020-03-18 08:00:00 5.4 0 Calma 5 Sudoeste 0 -- -- 100
2020-03-18 07:00:00 5.4 0 Calma 4 Sudoeste 0 -- -- 99
2020-03-18 06:00:00 5.7 0 Calma 4 Oeste 0 -- -- 99
2020-03-18 05:00:00 6.1 0 Calma 4 Oeste 0.2 -- -- 99
2020-03-18 04:00:00 6.4 0 Calma 5 Oeste 0 -- -- 99
2020-03-18 03:00:00 6.3 0 Calma 6 Oeste 0 -- -- 99
2020-03-18 02:00:00 6.8 2 Este 4 Este 0 -- -- 99
2020-03-18 01:00:00 7.1 0 Calma 5 Oeste 0 -- -- 98
2020-03-18 00:00:00 7.2 3 Oeste 5 Oeste 0 -- -- 97
2020-03-17 23:00:00 7.9 0 Calma 5 Oeste 0 -- -- 97
2020-03-17 22:00:00 8.9 0 Calma 9 Sudeste 0 -- -- 96
2020-03-17 21:00:00 9.7 3 Sudeste 8 Sudeste 0 -- -- 94
2020-03-17 20:00:00 11.3 0 Calma 12 Este 0 -- -- 90
2020-03-17 19:00:00 12.7 7 Este 14 Nordeste 0 -- -- 86
2020-03-17 18:00:00 13.2 6 Nordeste 13 Este 0 -- -- 84
2020-03-17 17:00:00 13.6 6 Este 12 Este 0 -- -- 85
2020-03-17 16:00:00 13.5 5 Este 9 Este 0 -- -- 84
2020-03-17 15:00:00 12.8 3 Este 6 Este 0 -- -- 88
2020-03-17 14:00:00 12.5 3 Este 4 Este 0 -- -- 88
2020-03-17 13:00:00 11.7 0 Calma 3 Sudoeste 0 -- -- 90
2020-03-17 12:00:00 10.9 0 Calma 5 Oeste 0 -- -- 94
2020-03-17 11:00:00 10.1 4 Oeste 6 Oeste 0 -- -- 98
2020-03-17 10:00:00 9.6 0 Calma 4 Sudeste 0 -- -- 99
2020-03-17 09:00:00 9.1 0 Calma 6 Oeste 0 -- -- 99
2020-03-17 08:00:00 8.8 0 Calma 4 Sudoeste 0 -- -- 99
2020-03-17 07:00:00 8.8 0 Calma 2 Sudoeste 0.2 -- -- 99
2020-03-17 06:00:00 8.8 0 Calma 4 Sudeste 0 -- -- 98
2020-03-17 05:00:00 8.9 3 Oeste 7 Noroeste 0.2 -- -- 98
2020-03-17 04:00:00 8.8 2 Oeste 5 Oeste 0 -- -- 99
2020-03-17 03:00:00 8.8 0 Calma 4 Sur 0.4 -- -- 98
2020-03-17 02:00:00 8.8 2 Oeste 6 Oeste 0.6 -- -- 98
2020-03-17 01:00:00 8.8 0 Calma 8 Noroeste 0.2 -- -- 98
2020-03-17 00:00:00 8.8 3 Noroeste 12 Norte 0 -- -- 98
2020-03-16 23:00:00 8.6 3 Sudeste 8 Noroeste 0.2 -- -- 98
2020-03-16 22:00:00 8.8 5 Noroeste 13 Oeste 0.4 -- -- 97
2020-03-16 21:00:00 8.9 4 Noroeste 13 Noroeste 0.8 -- -- 97
2020-03-16 20:00:00 8.9 6 Oeste 15 Oeste 1.4 -- -- 97
2020-03-16 19:00:00 8.9 4 Oeste 14 Noroeste 0.4 -- -- 96
2020-03-16 18:00:00 9.2 8 Noroeste 18 Noroeste 1 -- -- 94
2020-03-16 17:00:00 9.5 6 Noroeste 19 Noroeste 0.8 -- -- 94
2020-03-16 16:00:00 9.4 8 Noroeste 17 Norte 1.8 -- -- 93
2020-03-16 15:00:00 9.6 6 Noroeste 17 Oeste 1.8 -- -- 93
2020-03-16 14:00:00 9.7 8 Noroeste 26 Oeste 1.2 -- -- 90
2020-03-16 13:00:00 9.2 5 Noroeste 20 Oeste 2.4 -- -- 93
2020-03-16 12:00:00 8.8 3 Norte 13 Norte 2.8 -- -- 93
2020-03-16 11:00:00 8.1 5 Noroeste 31 Oeste 3.4 -- -- 94
2020-03-16 10:00:00 7.9 7 Noroeste 11 Noroeste 1.4 -- -- 95
2020-03-16 09:00:00 7.2 6 Noroeste 17 Noroeste 0.8 -- -- 95
2020-03-16 08:00:00 6.8 8 Oeste 18 Norte 2.6 -- -- 94
2020-03-16 07:00:00 6.5 9 Noroeste 18 Noroeste 3.2 -- -- 93
2020-03-16 06:00:00 6.4 5 Oeste 12 Oeste 2.8 -- -- 95
2020-03-16 05:00:00 6.4 3 Oeste 14 Norte 1.8 -- -- 93
2020-03-16 04:00:00 6.5 9 Oeste 21 Oeste 1.6 -- -- 93
2020-03-16 03:00:00 6.5 2 Oeste 12 Noroeste 1 -- -- 93
2020-03-16 02:00:00 6.6 6 Oeste 16 Oeste 1.4 -- -- 93
2020-03-16 01:00:00 7 4 Noroeste 12 Noroeste 0.4 -- -- 92
2020-03-16 00:00:00 7.4 4 Noroeste 12 Oeste 0.8 -- -- 91
2020-03-15 23:00:00 7.8 3 Norte 13 Noroeste 0.2 -- -- 89
2020-03-15 22:00:00 8 5 Noroeste 19 Sudoeste 0.2 -- -- 91
2020-03-15 21:00:00 8.6 6 Oeste 24 Oeste 2 -- -- 90
2020-03-15 20:00:00 9.8 5 Oeste 22 Oeste 0.6 -- -- 89
2020-03-15 19:00:00 10.6 2 Sudoeste 7 Sudoeste 0.6 -- -- 93
2020-03-15 18:00:00 11.7 3 Sur 8 Norte 0.8 -- -- 87
2020-03-15 17:00:00 13.3 2 Noroeste 17 Oeste 0 -- -- 71
2020-03-15 16:00:00 13.2 5 Oeste 21 Noroeste 0 -- -- 73
2020-03-15 15:00:00 13.8 10 Noroeste 25 Oeste 0 -- -- 75
2020-03-15 14:00:00 15.1 12 Noroeste 25 Oeste 0 -- -- 70
2020-03-15 13:00:00 16.6 12 Noroeste 21 Noroeste 0 -- -- 68
2020-03-15 12:00:00 16.1 5 Noroeste 18 Noroeste 0 -- -- 69
2020-03-15 11:00:00 14 2 Nordeste 8 Nordeste 0 -- -- 76
2020-03-15 10:00:00 8.7 0 Calma 8 Sudoeste 0 -- -- 98
2020-03-15 09:00:00 4.2 0 Calma 4 Nordeste 0 -- -- 100
2020-03-15 08:00:00 1.9 2 Sudeste 6 Noroeste 0 -- -- 99
2020-03-15 07:00:00 1.8 0 Calma 5 Oeste 0 -- -- 99
2020-03-15 06:00:00 2.2 0 Calma 6 Este 0 -- -- 98
2020-03-15 05:00:00 2.5 0 Calma 5 Oeste 0 -- -- 98
2020-03-15 04:00:00 2.6 2 Sudoeste 4 Oeste 0 -- -- 98
2020-03-15 03:00:00 3.1 0 Calma 6 Oeste 0 -- -- 98
2020-03-15 02:00:00 3.4 0 Calma 5 Sudoeste 0 -- -- 97
2020-03-15 01:00:00 3.9 2 Oeste 5 Oeste 0 -- -- 97
2020-03-15 00:00:00 4.3 0 Calma 3 Oeste 0 -- -- 96
2020-03-14 23:00:00 5.1 2 Oeste 4 Sudoeste 0 -- -- 95
2020-03-14 22:00:00 5.9 0 Calma 3 Oeste 0 -- -- 93
2020-03-14 21:00:00 7.1 0 Calma 2 Sudoeste 0 -- -- 90
2020-03-14 20:00:00 8.9 0 Calma 11 Sudeste 0 -- -- 85
2020-03-14 19:00:00 12 5 Sudeste 18 Este 0 -- -- 75
2020-03-14 18:00:00 14.5 11 Este 22 Este 0 -- -- 64
2020-03-14 17:00:00 15.7 10 Este 24 Nordeste 0 -- -- 62
2020-03-14 16:00:00 16.9 9 Este 18 Este 0 -- -- 59
2020-03-14 15:00:00 16.8 8 Nordeste 15 Norte 0 -- -- 58
2020-03-14 14:00:00 16.1 4 Nordeste 16 Nordeste 0 -- -- 59
2020-03-14 13:00:00 15.2 6 Nordeste 19 Nordeste 0 -- -- 61
2020-03-14 12:00:00 14.7 3 Nordeste 11 Nordeste 0 -- -- 65
2020-03-14 11:00:00 10.2 0 Calma 3 Oeste 0 -- -- 83
2020-03-14 10:00:00 5.8 2 Sudoeste 4 Oeste 0 -- -- 100
2020-03-14 09:00:00 2.8 0 Calma 4 Sudoeste 0 -- -- 100
2020-03-14 08:00:00 2 0 Calma 3 Norte 0 -- -- 99
2020-03-14 07:00:00 2.2 0 Calma 4 Noroeste 0 -- -- 99
2020-03-14 06:00:00 2.4 0 Calma 3 Oeste 0 -- -- 99
2020-03-14 05:00:00 2.7 0 Calma 4 Noroeste 0 -- -- 99
2020-03-14 04:00:00 2.7 0 Calma 3 Oeste 0 -- -- 99
2020-03-14 03:00:00 2.5 0 Calma 5 Oeste 0 -- -- 98
2020-03-14 02:00:00 2.5 3 Oeste 6 Oeste 0 -- -- 98
2020-03-14 01:00:00 2.7 3 Oeste 5 Sudoeste 0 -- -- 98
2020-03-14 00:00:00 3 0 Calma 4 Oeste 0 -- -- 97
2020-03-13 23:00:00 3.9 0 Calma 4 Sudoeste 0 -- -- 96
2020-03-13 22:00:00 4.6 0 Calma 3 Sudoeste 0 -- -- 95
2020-03-13 21:00:00 5.6 0 Calma 3 Oeste 0 -- -- 93
2020-03-13 20:00:00 7.1 0 Calma 4 Sudeste 0 -- -- 89
2020-03-13 19:00:00 9.4 3 Sur 14 Nordeste 0 -- -- 81
2020-03-13 18:00:00 11.8 7 Nordeste 16 Nordeste 0 -- -- 69
2020-03-13 17:00:00 13.1 6 Nordeste 15 Nordeste 0 -- -- 64
2020-03-13 16:00:00 13.5 3 Nordeste 12 Nordeste 0 -- -- 62
2020-03-13 15:00:00 13.4 6 Este 12 Sudeste 0 -- -- 62
2020-03-13 14:00:00 12.8 7 Este 15 Norte 0 -- -- 69
2020-03-13 13:00:00 12.3 6 Nordeste 15 Este 0 -- -- 77
2020-03-13 12:00:00 12.2 2 Sur 6 Oeste 0 -- -- 83
2020-03-13 11:00:00 11 0 Calma 4 Este 0 -- -- 86
2020-03-13 10:00:00 10 0 Calma 3 Sudeste 0 -- -- 98
2020-03-13 09:00:00 9.4 0 Calma 2 Sudoeste 0 -- -- 98
2020-03-13 08:00:00 9.1 0 Calma 4 Sur 0 -- -- 98
2020-03-13 07:00:00 9.1 0 Calma 3 Sudoeste 0.4 -- -- 98
2020-03-13 06:00:00 9.2 2 Sudoeste 6 Oeste 0.2 -- -- 97
2020-03-13 05:00:00 9.4 2 Sudoeste 14 Sudoeste 0 -- -- 96
2020-03-13 04:00:00 9.6 2 Oeste 8 Oeste 0 -- -- 98
2020-03-13 03:00:00 9.7 4 Oeste 8 Oeste 0.2 -- -- 98
2020-03-13 02:00:00 9.8 4 Oeste 8 Oeste 0.2 -- -- 98
2020-03-13 01:00:00 9.9 6 Oeste 11 Oeste 0.6 -- -- 98
2020-03-13 00:00:00 10.2 0 Calma 5 Norte 0.6 -- -- 98
2020-03-12 23:00:00 10.2 0 Calma 4 Norte 1.2 -- -- 97
2020-03-12 22:00:00 10.3 0 Calma 3 Norte 0.4 -- -- 97
2020-03-12 21:00:00 10.4 0 Calma 4 Norte 0.2 -- -- 97
2020-03-12 20:00:00 10.5 0 Calma 4 Norte 0 -- -- 96
2020-03-12 19:00:00 10.9 2 Norte 15 Norte 0.8 -- -- 94
2020-03-12 18:00:00 11.8 8 Este 18 Este 0.2 -- -- 91
2020-03-12 17:00:00 13.2 5 Oeste 10 Norte 0 -- -- 89
2020-03-12 16:00:00 14 3 Nordeste 10 Este 0 -- -- 78
2020-03-12 15:00:00 13.9 3 Noroeste 9 Oeste 0 -- -- 85
2020-03-12 14:00:00 14.6 4 Oeste 8 Oeste 0 -- -- 81
2020-03-12 13:00:00 14.2 3 Nordeste 6 Nordeste 0 -- -- 84
2020-03-12 12:00:00 13.5 2 Oeste 5 Noroeste 0 -- -- 87
2020-03-12 11:00:00 12.5 0 Calma 4 Nordeste 0 -- -- 92
2020-03-12 10:00:00 11.4 0 Calma 2 Oeste 0 -- -- 97
2020-03-12 09:00:00 10.6 0 Calma 4 Sudoeste 0 -- -- 98
2020-03-12 08:00:00 10.3 0 Calma 3 Oeste 0 -- -- 98
2020-03-12 07:00:00 10.3 0 Calma 3 Oeste 0 -- -- 97
2020-03-12 06:00:00 10.2 0 Calma 4 Oeste 0 -- -- 97
2020-03-12 05:00:00 10 0 Calma 2 Oeste 0 -- -- 97
2020-03-12 04:00:00 9.8 0 Calma 6 Oeste 0 -- -- 98
2020-03-12 03:00:00 9.5 0 Calma 3 Oeste 0 -- -- 98
2020-03-12 02:00:00 9 0 Calma 4 Oeste 0 -- -- 98
2020-03-12 01:00:00 8.2 0 Calma 3 Oeste 0 -- -- 97
2020-03-12 00:00:00 8.2 2 Oeste 3 Oeste 0 -- -- 95
2020-03-11 23:00:00 9 0 Calma 3 Oeste 0 -- -- 95
2020-03-11 22:00:00 9.5 0 Calma 2 Sur 0 -- -- 93
2020-03-11 21:00:00 10.6 0 Calma 3 Sur 0 -- -- 90
2020-03-11 20:00:00 12 2 Sudoeste 12 Este 0 -- -- 84
2020-03-11 19:00:00 15 8 Este 21 Nordeste 0 -- -- 74
2020-03-11 18:00:00 18 9 Este 18 Este 0 -- -- 68
2020-03-11 17:00:00 19.5 11 Este 22 Este 0 -- -- 66
2020-03-11 16:00:00 20.1 12 Este 21 Este 0 -- -- 66
2020-03-11 15:00:00 20.1 12 Este 19 Nordeste 0 -- -- 65
2020-03-11 14:00:00 20.2 7 Este 15 Este 0 -- -- 65
2020-03-11 13:00:00 19.3 6 Este 14 Este 0 -- -- 67
2020-03-11 12:00:00 16.6 0 Calma 5 Nordeste 0 -- -- 74
2020-03-11 11:00:00 12.9 0 Calma 4 Este 0 -- -- 85
2020-03-11 10:00:00 8.4 0 Calma 3 Noroeste 0 -- -- 100
2020-03-11 09:00:00 5.2 0 Calma 3 Sudoeste 0 -- -- 100
2020-03-11 08:00:00 4.8 2 Sur 4 Noroeste 0 -- -- 99
2020-03-11 07:00:00 5.1 0 Calma 4 Sudoeste 0 -- -- 99
2020-03-11 06:00:00 5.4 2 Sudoeste 5 Oeste 0 -- -- 99
2020-03-11 05:00:00 5.8 0 Calma 3 Norte 0 -- -- 99
2020-03-11 04:00:00 6.4 0 Calma 2 Sudoeste 0 -- -- 99
2020-03-11 03:00:00 6.7 0 Calma 3 Oeste 0 -- -- 98
2020-03-11 02:00:00 6.7 0 Calma 4 Oeste 0 -- -- 98
2020-03-11 01:00:00 6.4 0 Calma 5 Oeste 0 -- -- 98
2020-03-11 00:00:00 6.1 0 Calma 3 Oeste 0 -- -- 97
2020-03-10 23:00:00 6.9 2 Oeste 4 Oeste 0 -- -- 96
2020-03-10 22:00:00 7.7 0 Calma 3 Oeste 0 -- -- 95
2020-03-10 21:00:00 8.7 0 Calma 3 Sur 0 -- -- 93
2020-03-10 20:00:00 10.1 2 Oeste 3 Sudoeste 0 -- -- 91
2020-03-10 19:00:00 12.5 0 Calma 9 Este 0 -- -- 83
2020-03-10 18:00:00 14.9 7 Nordeste 15 Nordeste 0 -- -- 74
2020-03-10 17:00:00 14.8 9 Este 22 Nordeste 0 -- -- 73
2020-03-10 16:00:00 16.4 12 Este 24 Este 0 -- -- 70
2020-03-10 15:00:00 16.9 10 Este 19 Nordeste 0 -- -- 70
2020-03-10 14:00:00 17.1 7 Nordeste -- -- -- -- -- 67
2020-03-10 13:00:00 -- -- -- -- -- -- -- -- --
2020-03-10 12:00:00 13.9 0 Calma 6 Este 0 -- -- 72
2020-03-10 11:00:00 10 0 Calma 5 Nordeste 0 -- -- 87
2020-03-10 10:00:00 6.8 0 Calma 5 Oeste 0 -- -- 100
2020-03-10 09:00:00 4.6 2 Nordeste 4 Este 0 -- -- 99
2020-03-10 08:00:00 3.3 0 Calma 4 Sudeste 0 -- -- 98
2020-03-10 07:00:00 3.4 0 Calma 4 Noroeste 0 -- -- 98
2020-03-10 06:00:00 3.6 0 Calma 3 Sur 0 -- -- 98
2020-03-10 05:00:00 4 0 Calma 3 Oeste 0 -- -- 98
2020-03-10 04:00:00 4.3 0 Calma 3 Oeste 0 -- -- 97
2020-03-10 03:00:00 4.9 2 Oeste 5 Sudoeste 0 -- -- 97
2020-03-10 02:00:00 5.4 2 Oeste 4 Oeste 0 -- -- 97
2020-03-10 01:00:00 5.8 2 Oeste 4 Oeste 0 -- -- 96
2020-03-10 00:00:00 6.1 0 Calma 4 Oeste 0 -- -- 96
2020-03-09 23:00:00 6.6 0 Calma 5 Sudoeste 0 -- -- 95
2020-03-09 22:00:00 7.1 0 Calma 5 Oeste 0 -- -- 94
2020-03-09 21:00:00 7.7 0 Calma 6 Este 0 -- -- 91
2020-03-09 20:00:00 9.4 3 Sudoeste 6 Sur 0 -- -- 85
2020-03-09 19:00:00 12 3 Sudoeste 9 Sudoeste 0 -- -- 71
2020-03-09 18:00:00 13.3 5 Noroeste 22 Noroeste 0 -- -- 65
2020-03-09 17:00:00 13.5 11 Noroeste 28 Noroeste 0 -- -- 62
2020-03-09 16:00:00 14.1 14 Noroeste 31 Noroeste 0 -- -- 59
2020-03-09 15:00:00 14.3 14 Noroeste 31 Noroeste 0 -- -- 59
2020-03-09 14:00:00 13.6 14 Noroeste 33 Noroeste 0 -- -- 62
2020-03-09 13:00:00 13.4 15 Oeste 32 Oeste 0 -- -- 64
2020-03-09 12:00:00 12.2 8 Noroeste 37 Oeste 0 -- -- 73
2020-03-09 11:00:00 12.2 8 Noroeste 22 Oeste 0 -- -- 73
2020-03-09 10:00:00 10.8 4 Noroeste 19 Sudoeste 0 -- -- 81
2020-03-09 09:00:00 9.3 5 Noroeste 10 Noroeste 0.6 -- -- 93
2020-03-09 08:00:00 8.8 2 Norte 15 Oeste 0.2 -- -- 93
2020-03-09 07:00:00 8.5 0 Calma 9 Oeste 0 -- -- 95
2020-03-09 06:00:00 9.3 2 Sudoeste 16 Noroeste 1.6 -- -- 91
2020-03-09 05:00:00 9.7 4 Oeste 17 Oeste 0.4 -- -- 87
2020-03-09 04:00:00 9.6 3 Este 14 Oeste 0 -- -- 82
2020-03-09 03:00:00 9.8 5 Noroeste 18 Noroeste 0.4 -- -- 82
2020-03-09 02:00:00 10.1 8 Noroeste 22 Oeste 0.4 -- -- 81
2020-03-09 01:00:00 9.7 2 Sudoeste 19 Oeste 0.2 -- -- 88
2020-03-09 00:00:00 10.3 6 Noroeste 19 Oeste 1.2 -- -- 85
2020-03-08 23:00:00 10.9 2 Noroeste 17 Noroeste 0 -- -- 84
2020-03-08 22:00:00 11.4 8 Noroeste 21 Noroeste 0 -- -- 79
2020-03-08 21:00:00 11 4 Norte 32 Oeste 1 -- -- 88
2020-03-08 20:00:00 11.1 12 Oeste 34 Sudoeste 1.2 -- -- 86
2020-03-08 19:00:00 11.7 11 Noroeste 23 Norte 0.4 -- -- 89
2020-03-08 18:00:00 13.5 6 Noroeste 35 Oeste 0 -- -- 71
2020-03-08 17:00:00 14.8 12 Noroeste 33 Noroeste 0 -- -- 72
2020-03-08 16:00:00 17.8 13 Oeste 27 Oeste 0 -- -- 60
2020-03-08 15:00:00 19.4 3 Sudoeste 8 Oeste 0 -- -- 53
2020-03-08 14:00:00 17.4 4 Nordeste 8 Nordeste 0 -- -- 60
2020-03-08 13:00:00 15.1 0 Calma 6 Oeste 0 -- -- 62
2020-03-08 12:00:00 12.2 0 Calma 4 Nordeste 0 -- -- 81
2020-03-08 11:00:00 8.6 0 Calma 3 Nordeste 0 -- -- 98
2020-03-08 10:00:00 6.2 0 Calma 5 Sudeste 0 -- -- 100
2020-03-08 09:00:00 4.4 0 Calma 8 Oeste 0 -- -- 100
2020-03-08 08:00:00 3.4 2 Oeste 8 Sudeste 0 -- -- 99
2020-03-08 07:00:00 2.7 0 Calma 6 Oeste 0 -- -- 99
2020-03-08 06:00:00 2.8 4 Oeste 8 Oeste 0 -- -- 99
2020-03-08 05:00:00 2.3 0 Calma 7 Noroeste 0 -- -- 99
2020-03-08 04:00:00 2.7 2 Oeste 9 Oeste 0 -- -- 98
2020-03-08 03:00:00 2.9 2 Nordeste 6 Oeste 0 -- -- 98
2020-03-08 02:00:00 3.4 0 Calma 3 Oeste 0 -- -- 98
2020-03-08 01:00:00 3.6 0 Calma 5 Oeste 0 -- -- 98
2020-03-08 00:00:00 3.7 0 Calma 3 Oeste 0 -- -- 96
2020-03-07 23:00:00 4.3 0 Calma 6 Oeste 0 -- -- 96
2020-03-07 22:00:00 5.1 0 Calma 5 Sudoeste 0 -- -- 95
2020-03-07 21:00:00 6.3 0 Calma 3 Sudoeste 0 -- -- 94
2020-03-07 20:00:00 7.5 0 Calma 4 Sudoeste 0 -- -- 90
2020-03-07 19:00:00 10.4 0 Calma 4 Sudoeste 0 -- -- 83
2020-03-07 18:00:00 13.3 2 Oeste 14 Oeste 0 -- -- 69
2020-03-07 17:00:00 14.5 8 Noroeste 16 Noroeste 0 -- -- 57
2020-03-07 16:00:00 13.9 7 Oeste 19 Noroeste 0 -- -- 62
2020-03-07 15:00:00 13.9 7 Oeste 23 Oeste 0 -- -- 63
2020-03-07 14:00:00 14.1 9 Noroeste 23 Oeste 0 -- -- 69
2020-03-07 13:00:00 12.8 4 Noroeste 12 Sudoeste 0 -- -- 81
2020-03-07 12:00:00 10.9 2 Nordeste 12 Oeste 0.6 -- -- 90
2020-03-07 11:00:00 10.8 5 Oeste 12 Oeste 0.8 -- -- 92
2020-03-07 10:00:00 10.2 2 Oeste 8 Sudoeste 0 -- -- 95
2020-03-07 09:00:00 9.4 0 Calma 8 Oeste 0.6 -- -- 97
2020-03-07 08:00:00 9 0 Calma 6 Oeste 0.2 -- -- 96
2020-03-07 07:00:00 9 0 Calma 7 Noroeste 0.4 -- -- 96
2020-03-07 06:00:00 9.1 2 Noroeste 11 Oeste 1 -- -- 95
2020-03-07 05:00:00 9.2 3 Noroeste 11 Norte 0.4 -- -- 93
2020-03-07 04:00:00 9.1 5 Oeste 14 Oeste 0 -- -- 91
2020-03-07 03:00:00 8.7 6 Oeste 17 Noroeste 0.2 -- -- 92
2020-03-07 02:00:00 9.1 9 Noroeste 26 Oeste 0 -- -- 87
2020-03-07 01:00:00 8.1 5 Noroeste 17 Noroeste 0 -- -- 91
2020-03-07 00:00:00 8.2 2 Sudeste 35 Sudoeste 0.4 -- -- 88
2020-03-06 23:00:00 8.2 4 Noroeste 23 Oeste 0 -- -- 88
2020-03-06 22:00:00 7.8 4 Noroeste 27 Oeste 0.6 -- -- 89
2020-03-06 21:00:00 7.8 16 Noroeste 37 Sudoeste 1.8 -- -- 89
2020-03-06 20:00:00 7.2 4 Noroeste 33 Noroeste 0.4 -- -- 91
2020-03-06 19:00:00 7.6 3 Noroeste 28 Noroeste 0.8 -- -- 84
2020-03-06 18:00:00 7.4 4 Noroeste 43 Oeste 1.2 -- -- 87
2020-03-06 17:00:00 8 5 Noroeste 23 Noroeste 0.8 -- -- 85
2020-03-06 16:00:00 6.6 7 Noroeste 52 Oeste 2.2 -- -- 86
2020-03-06 15:00:00 10.3 22 Oeste 51 Sudoeste 0.4 -- -- 71
2020-03-06 14:00:00 6.9 8 Oeste 48 Oeste 4 -- -- 89
2020-03-06 13:00:00 8.5 11 Noroeste 35 Noroeste 0.8 -- -- 77
2020-03-06 12:00:00 10.4 18 Noroeste 41 Oeste 0.2 -- -- 68
2020-03-06 11:00:00 8.8 12 Noroeste 32 Norte 1 -- -- 80
2020-03-06 10:00:00 7.1 12 Noroeste 34 Noroeste 1.2 -- -- 85
2020-03-06 09:00:00 5.7 6 Oeste 34 Oeste 3.8 -- -- 90
2020-03-06 08:00:00 6.2 5 Noroeste 40 Sudoeste 3.2 -- -- 88
2020-03-06 07:00:00 6.3 5 Norte 36 Noroeste 4 -- -- 88
2020-03-06 06:00:00 7.5 13 Oeste 41 Noroeste 2.2 -- -- 84
2020-03-06 05:00:00 8.6 13 Noroeste 36 Oeste 0.6 -- -- 81
2020-03-06 04:00:00 8.7 15 Noroeste 35 Noroeste 0.2 -- -- 78
2020-03-06 03:00:00 6.1 3 Sudeste 23 Oeste 0.6 -- -- 98
2020-03-06 02:00:00 5.6 4 Sur 12 Oeste 0 -- -- 98
2020-03-06 01:00:00 4.8 0 Calma 8 Oeste 0 -- -- 96
2020-03-06 00:00:00 5.8 0 Calma 10 Sudoeste 0 -- -- 96
2020-03-05 23:00:00 6.9 2 Este 10 Oeste 0 -- -- 94
2020-03-05 22:00:00 7.8 3 Este 11 Sudeste 0.2 -- -- 93
2020-03-05 21:00:00 8.7 4 Noroeste 18 Sur 1.4 -- -- 89
2020-03-05 20:00:00 9 2 Sudeste 30 Noroeste 1.8 -- -- 88
2020-03-05 19:00:00 11 10 Oeste 28 Oeste 0 -- -- 74
2020-03-05 18:00:00 11.1 8 Oeste 35 Sudoeste 0 -- -- 75
2020-03-05 17:00:00 11 14 Oeste 54 Oeste 0.2 -- -- 78
2020-03-05 16:00:00 11 11 Noroeste 42 Oeste 1.8 -- -- 80
2020-03-05 15:00:00 13.2 14 Noroeste 53 Oeste 0.4 -- -- 70
2020-03-05 14:00:00 12.5 21 Oeste 55 Oeste 0 -- -- 77
2020-03-05 13:00:00 16.3 20 Noroeste 46 Oeste 0 -- -- 57
2020-03-05 12:00:00 14.2 9 Oeste 27 Oeste 0 -- -- 73
2020-03-05 11:00:00 11.8 5 Este 11 Sudeste 0.6 -- -- 91
2020-03-05 10:00:00 10.9 5 Sur 14 Sudoeste 3 -- -- 93
2020-03-05 09:00:00 11.2 4 Sudoeste 26 Oeste 3 -- -- 90
2020-03-05 08:00:00 11.7 7 Oeste 48 Oeste 2.2 -- -- 90
2020-03-05 07:00:00 16.7 22 Noroeste 57 Oeste 0 -- -- 73
2020-03-05 06:00:00 18.8 25 Sudoeste 78 Noroeste 0 -- -- 55
2020-03-05 05:00:00 18.6 15 Sudoeste 60 Oeste 0 -- -- 56
2020-03-05 04:00:00 18.3 19 Sur 67 Sudeste 0 -- -- 60
2020-03-05 03:00:00 18.4 22 Sudoeste 66 Sudeste 0 -- -- 59
2020-03-05 02:00:00 18.7 16 Sur 53 Sur 0 -- -- 57
2020-03-05 01:00:00 17.1 8 Sur 27 Sur 0 -- -- 62
2020-03-05 00:00:00 12.7 5 Oeste 11 Norte 0 -- -- 91
2020-03-04 23:00:00 12.1 2 Sur 10 Nordeste 0 -- -- 93
2020-03-04 22:00:00 11.6 3 Sudoeste 7 Oeste 0 -- -- 97
2020-03-04 21:00:00 11.9 0 Calma 4 Oeste 0 -- -- 93
2020-03-04 20:00:00 13.2 0 Calma 4 Sudeste 0 -- -- 91
2020-03-04 19:00:00 15.1 0 Calma 8 Sudeste 0 -- -- 84
2020-03-04 18:00:00 17.3 4 Sudeste 15 Este 0 -- -- 76
2020-03-04 17:00:00 18 8 Este 19 Este 0 -- -- 72
2020-03-04 16:00:00 19 8 Este 17 Este 0 -- -- 71
2020-03-04 15:00:00 20.2 5 Nordeste 12 Este 0 -- -- 67
2020-03-04 14:00:00 19.2 8 Nordeste 14 Nordeste 0 -- -- 68
2020-03-04 13:00:00 18.7 7 Este 17 Este 0 -- -- 72
2020-03-04 12:00:00 16 0 Calma 10 Sudeste 0 -- -- 91
2020-03-04 11:00:00 13 2 Noroeste 9 Sudeste 0 -- -- 99
2020-03-04 10:00:00 11.1 2 Noroeste 6 Noroeste 0 -- -- 99
2020-03-04 09:00:00 9.8 0 Calma 6 Sur 0 -- -- 99
2020-03-04 08:00:00 9.7 2 Nordeste 6 Norte 0 -- -- 98
2020-03-04 07:00:00 9.8 0 Calma 5 Noroeste 0 -- -- 98
2020-03-04 06:00:00 9.8 2 Noroeste 6 Oeste 0.2 -- -- 98
2020-03-04 05:00:00 9.9 0 Calma 4 Sudeste 2.2 -- -- 98
2020-03-04 04:00:00 9.8 0 Calma 4 Sudoeste 1.2 -- -- 98
2020-03-04 03:00:00 9.8 0 Calma 4 Oeste 0.2 -- -- 97
2020-03-04 02:00:00 9.8 0 Calma 9 Oeste 0 -- -- 97
2020-03-04 01:00:00 9.9 0 Calma 4 Este 0 -- -- 96
2020-03-04 00:00:00 10.2 0 Calma 8 Este 0 -- -- 96
2020-03-03 23:00:00 10.3 4 Este 11 Nordeste 0 -- -- 95
2020-03-03 22:00:00 10.5 3 Nordeste 7 Nordeste 0.2 -- -- 94
2020-03-03 21:00:00 10.9 3 Noroeste 11 Oeste 0 -- -- 92
2020-03-03 20:00:00 11.3 2 Oeste 13 Oeste 0.6 -- -- 93
2020-03-03 19:00:00 11.8 5 Oeste 17 Oeste 0.4 -- -- 90
2020-03-03 18:00:00 12.4 9 Oeste 37 Noroeste 1.6 -- -- 86
2020-03-03 17:00:00 14.4 15 Oeste 46 Oeste 0 -- -- 70
2020-03-03 16:00:00 14.6 18 Oeste 69 Oeste 0 -- -- 68
2020-03-03 15:00:00 15.3 23 Noroeste 54 Noroeste 0 -- -- 72
2020-03-03 14:00:00 16.4 16 Noroeste 49 Noroeste 0 -- -- 67
2020-03-03 13:00:00 16.6 18 Oeste 49 Noroeste 0 -- -- 72
2020-03-03 12:00:00 18.8 19 Oeste 46 Oeste 0 -- -- 58
2020-03-03 11:00:00 19.5 10 Noroeste 41 Oeste 0 -- -- 54
2020-03-03 10:00:00 17.2 10 Oeste 39 Sudoeste 0 -- -- 61
2020-03-03 09:00:00 12.5 7 Norte 51 Sur 0 -- -- 70
2020-03-03 08:00:00 11.2 10 Sudoeste 43 Noroeste 0.2 -- -- 67
2020-03-03 07:00:00 7.9 11 Sudeste 42 Este 1.4 -- -- 84
2020-03-03 06:00:00 6 2 Nordeste 7 Oeste 1.2 -- -- 96
2020-03-03 05:00:00 5.8 2 Oeste 10 Sudoeste 0 -- -- 96
2020-03-03 04:00:00 5.2 4 Oeste 8 Sur 0 -- -- 98
2020-03-03 03:00:00 5 2 Sur 6 Oeste 0 -- -- 98
2020-03-03 02:00:00 4.7 2 Noroeste 8 Oeste 0 -- -- 98
2020-03-03 01:00:00 4.2 3 Oeste 7 Sudeste 0 -- -- 97
2020-03-03 00:00:00 4.2 2 Oeste 8 Sur 0 -- -- 96
2020-03-02 23:00:00 5 3 Sudeste 14 Oeste 0 -- -- 93
2020-03-02 22:00:00 5.5 2 Sur 10 Sudeste 0 -- -- 94
2020-03-02 21:00:00 6.2 3 Norte 15 Norte 1 -- -- 88
2020-03-02 20:00:00 6.8 8 Noroeste 41 Oeste 1.6 -- -- 83
2020-03-02 19:00:00 7.6 6 Noroeste 41 Sudoeste 2.2 -- -- 85
2020-03-02 18:00:00 8.2 4 Norte 31 Oeste 0.4 -- -- 82
2020-03-02 17:00:00 8.5 8 Oeste 30 Noroeste 0.4 -- -- 80
2020-03-02 16:00:00 7.6 7 Oeste 44 Oeste 1.4 -- -- 86
2020-03-02 15:00:00 7.3 11 Oeste 51 Oeste 1.4 -- -- 81
2020-03-02 14:00:00 9.9 12 Oeste 35 Noroeste 0.6 -- -- 71
2020-03-02 13:00:00 7.5 8 Noroeste 26 Oeste 1.6 -- -- 84
2020-03-02 12:00:00 7.3 12 Noroeste 50 Sudoeste 2 -- -- 81
2020-03-02 11:00:00 9.3 11 Noroeste 24 Noroeste 0.6 -- -- 79
2020-03-02 10:00:00 9.2 14 Noroeste 44 Oeste 0.4 -- -- 72
2020-03-02 09:00:00 7.7 12 Noroeste 48 Oeste 1.4 -- -- 85
2020-03-02 08:00:00 7.4 9 Noroeste 48 Oeste 3.4 -- -- 88
2020-03-02 07:00:00 9.1 26 Oeste 53 Oeste 2.6 -- -- 83
2020-03-02 06:00:00 9.8 20 Oeste 53 Oeste 2.2 -- -- 84
2020-03-02 05:00:00 9.9 19 Oeste 59 Oeste 4.4 -- -- 83
2020-03-02 04:00:00 10.5 14 Noroeste 31 Oeste 6.4 -- -- 90
2020-03-02 03:00:00 11.5 6 Noroeste 39 Sudoeste 1.2 -- -- 86
2020-03-02 02:00:00 17.6 18 Oeste 63 Oeste 0 -- -- 56
2020-03-02 01:00:00 16.5 19 Oeste 76 Noroeste 0 -- -- 57
2020-03-02 00:00:00 15.1 19 Oeste 50 Oeste 0.6 -- -- 59